Time;durP1;ratioP1;P1;durP2;ratioP2;P2;SDS_P1;SDS_P2;PMS_P1;PMS_P2;Temp;Humidity;BMP_temperature;BMP_pressure;BME280_temperature;BME280_humidity;BME280_pressure;Samples;Min_cycle;Max_cycle;Signal;HPM_P1;HPM_P2
2022/07/25 00:02:19;;;;;;;3.15;2.50;;;18.30;99.90;;;;;;4949698;28;20027;-75
2022/07/25 00:04:46;;;;;;;2.83;2.45;;;18.90;99.90;;;;;;4951720;28;20049;-80
2022/07/25 00:07:14;;;;;;;4.25;3.10;;;19.20;99.90;;;;;;4946201;29;20087;-76
2022/07/25 00:09:41;;;;;;;4.05;3.00;;;19.10;99.90;;;;;;4950121;28;20090;-76
2022/07/25 00:12:09;;;;;;;2.83;2.10;;;19.50;99.90;;;;;;4948321;28;20105;-74
2022/07/25 00:14:36;;;;;;;5.57;3.05;;;19.50;99.90;;;;;;4954085;29;20038;-75
2022/07/25 00:17:04;;;;;;;2.72;2.42;;;20.40;99.10;;;;;;4946994;28;20031;-72
2022/07/25 00:19:31;;;;;;;3.42;2.70;;;20.60;99.10;;;;;;4944669;28;20087;-78
2022/07/25 00:21:59;;;;;;;3.75;2.80;;;20.90;98.00;;;;;;4945633;28;20109;-76
2022/07/25 00:24:26;;;;;;;3.10;2.60;;;21.20;97.20;;;;;;4949630;28;20524;-76
2022/07/25 00:26:53;;;;;;;2.85;2.55;;;21.10;97.30;;;;;;4948180;28;20078;-78
2022/07/25 00:29:21;;;;;;;3.67;2.67;;;21.30;97.60;;;;;;4940309;29;20027;-77
2022/07/25 00:31:48;;;;;;;4.30;2.47;;;21.20;97.90;;;;;;4944100;29;20020;-77
2022/07/25 00:34:16;;;;;;;4.47;2.63;;;21.40;97.20;;;;;;4953151;28;20126;-76
2022/07/25 00:36:43;;;;;;;4.72;2.78;;;21.10;96.50;;;;;;4950346;28;20027;-75
2022/07/25 00:39:11;;;;;;;4.65;3.17;;;20.90;97.70;;;;;;4953322;28;20049;-78
2022/07/25 00:41:38;;;;;;;5.00;3.00;;;21.10;97.50;;;;;;4949977;28;20055;-76
2022/07/25 00:44:06;;;;;;;7.53;2.63;;;21.10;97.10;;;;;;4943006;29;20427;-77
2022/07/25 00:46:33;;;;;;;4.15;3.35;;;21.00;98.20;;;;;;4949201;28;20035;-78
2022/07/25 00:49:01;;;;;;;3.95;3.50;;;21.60;96.60;;;;;;4943276;28;20397;-76
2022/07/25 00:51:28;;;;;;;2.22;2.00;;;21.30;96.60;;;;;;4948956;28;20393;-77
2022/07/25 00:53:56;;;;;;;4.25;3.00;;;21.00;97.60;;;;;;4941993;28;20034;-82
2022/07/25 00:56:25;;;;;;;3.58;2.53;;;21.30;98.00;;;;;;4949251;28;20074;-83
2022/07/25 00:58:52;;;;;;;3.35;2.03;;;22.00;97.10;;;;;;4936550;29;20039;-80
2022/07/25 01:01:20;;;;;;;2.65;1.70;;;22.50;96.50;;;;;;4940874;28;20106;-80
2022/07/25 01:03:47;;;;;;;2.03;1.83;;;22.90;96.60;;;;;;4948768;28;20047;-80
2022/07/25 01:06:15;;;;;;;2.05;1.27;;;23.40;95.00;;;;;;4950820;28;20113;-78
2022/07/25 01:08:42;;;;;;;2.90;1.50;;;23.40;94.40;;;;;;4950356;28;20267;-79
2022/07/25 01:11:10;;;;;;;1.40;1.10;;;23.50;94.50;;;;;;4948279;28;20042;-83
2022/07/25 01:13:38;;;;;;;2.15;1.20;;;23.60;94.10;;;;;;4952988;28;20540;-85
2022/07/25 01:16:05;;;;;;;2.55;1.92;;;23.70;93.60;;;;;;4950675;28;20027;-79
2022/07/25 01:18:33;;;;;;;2.15;1.27;;;23.90;95.00;;;;;;4942994;28;20037;-76
2022/07/25 01:21:01;;;;;;;3.90;1.55;;;24.20;93.80;;;;;;4951879;28;20055;-76
2022/07/25 01:23:28;;;;;;;1.33;1.00;;;23.80;93.00;;;;;;4949034;28;20073;-77
2022/07/25 01:25:56;;;;;;;1.67;0.90;;;23.70;93.50;;;;;;4951773;29;20039;-80
2022/07/25 01:28:23;;;;;;;1.50;1.05;;;23.80;94.40;;;;;;4952193;29;20561;-75
2022/07/25 01:30:51;;;;;;;1.85;0.60;;;23.70;93.60;;;;;;4951726;28;20027;-81
2022/07/25 01:33:20;;;;;;;2.83;0.70;;;24.30;93.90;;;;;;4949798;28;20050;-77
2022/07/25 01:35:49;;;;;;;1.42;0.80;;;24.60;92.80;;;;;;4946100;29;20378;-76
2022/07/25 01:38:16;;;;;;;1.20;0.70;;;24.50;93.30;;;;;;4952706;29;20039;-76
2022/07/25 01:40:44;;;;;;;1.25;0.77;;;24.50;93.40;;;;;;4952885;29;20232;-79
2022/07/25 01:43:12;;;;;;;2.25;0.95;;;25.00;93.40;;;;;;4950352;29;20039;-78
2022/07/25 01:45:40;;;;;;;2.10;0.98;;;25.20;92.70;;;;;;4949738;28;20037;-75
2022/07/25 01:48:08;;;;;;;3.53;1.40;;;25.30;92.30;;;;;;4952034;29;20042;-78
2022/07/25 01:50:35;;;;;;;3.65;1.50;;;25.10;92.00;;;;;;4950943;28;20053;-77
2022/07/25 01:53:03;;;;;;;2.80;1.80;;;24.90;92.20;;;;;;4948438;28;20114;-76
2022/07/25 01:55:31;;;;;;;3.30;1.88;;;24.50;92.90;;;;;;4948366;28;20059;-83
2022/07/25 01:57:58;;;;;;;1.98;1.55;;;24.00;93.70;;;;;;4940844;29;20028;-80
2022/07/25 02:00:26;;;;;;;1.80;0.90;;;24.10;94.10;;;;;;4947469;29;20470;-79
2022/07/25 02:03:28;;;;;;;1.48;1.27;;;24.30;92.90;;;;;;4945636;29;20035;-78
2022/07/25 02:05:40;;;;;;;2.65;1.23;;;24.70;93.40;;;;;;4950759;28;20045;-76
2022/07/25 02:08:08;;;;;;;1.58;0.90;;;25.20;92.60;;;;;;4943544;28;20031;-80
2022/07/25 02:10:35;;;;;;;1.55;1.00;;;25.20;92.20;;;;;;4944885;29;20027;-79
2022/07/25 02:13:03;;;;;;;1.48;0.80;;;25.10;92.50;;;;;;4945869;29;20046;-78
2022/07/25 02:15:30;;;;;;;2.13;0.70;;;25.30;92.70;;;;;;4943244;29;20031;-78
2022/07/25 02:17:57;;;;;;;0.95;0.70;;;25.00;92.20;;;;;;4948819;29;20046;-78
2022/07/25 02:20:25;;;;;;;1.67;0.70;;;25.00;92.60;;;;;;4946607;29;20034;-79
2022/07/25 02:22:52;;;;;;;2.47;0.70;;;24.70;92.20;;;;;;4945864;28;20039;-84
2022/07/25 02:25:20;;;;;;;1.25;0.68;;;24.20;92.20;;;;;;4944718;28;20059;-77
2022/07/25 02:27:47;;;;;;;1.73;0.50;;;23.80;92.70;;;;;;4945833;28;20063;-80
2022/07/25 02:30:14;;;;;;;2.80;0.68;;;23.60;92.80;;;;;;4945083;29;20031;-81
2022/07/25 02:32:42;;;;;;;2.65;0.70;;;23.00;93.40;;;;;;4937504;29;20036;-77
2022/07/25 02:35:09;;;;;;;1.95;0.60;;;22.80;94.10;;;;;;4948525;29;20062;-81
2022/07/25 02:37:37;;;;;;;1.08;0.55;;;22.90;94.00;;;;;;4947520;29;20024;-76
2022/07/25 02:40:05;;;;;;;0.50;0.40;;;23.10;93.70;;;;;;4949376;29;20027;-80
2022/07/25 02:42:32;;;;;;;0.98;0.80;;;23.30;93.30;;;;;;4950450;29;20031;-76
2022/07/25 02:45:00;;;;;;;2.20;0.63;;;23.60;93.30;;;;;;4952090;29;20422;-80
2022/07/25 02:47:27;;;;;;;1.13;0.63;;;23.20;92.40;;;;;;4939434;29;20163;-79
2022/07/25 02:49:55;;;;;;;0.95;0.60;;;22.60;93.70;;;;;;4946329;29;20035;-80
2022/07/25 02:52:22;;;;;;;0.77;0.30;;;22.70;93.90;;;;;;4947201;28;20473;-80
2022/07/25 02:54:50;;;;;;;0.90;0.50;;;22.80;93.80;;;;;;4941851;29;20046;-81
2022/07/25 02:57:17;;;;;;;4.03;0.70;;;22.60;93.90;;;;;;4949376;29;20082;-76
2022/07/25 02:59:44;;;;;;;3.92;0.40;;;22.70;94.10;;;;;;4950645;28;20383;-83
2022/07/25 03:02:12;;;;;;;1.00;0.50;;;22.40;93.10;;;;;;4948062;29;20410;-85
2022/07/25 03:04:39;;;;;;;0.65;0.30;;;22.10;94.20;;;;;;4950207;28;20390;-81
2022/07/25 03:07:07;;;;;;;1.48;0.77;;;21.90;94.60;;;;;;4949584;29;20457;-83
2022/07/25 03:09:34;;;;;;;2.35;0.52;;;22.20;94.50;;;;;;4947982;28;20037;-79
2022/07/25 03:12:01;;;;;;;0.85;0.40;;;22.20;94.70;;;;;;4951408;29;20107;-81
2022/07/25 03:14:29;;;;;;;3.55;0.65;;;22.20;94.60;;;;;;4950784;29;20034;-81
2022/07/25 03:16:56;;;;;;;1.70;0.57;;;22.50;94.10;;;;;;4942067;29;20475;-79
2022/07/25 03:19:24;;;;;;;1.67;0.82;;;22.40;94.20;;;;;;4940889;29;20340;-83
2022/07/25 03:21:51;;;;;;;0.43;0.30;;;22.20;93.70;;;;;;4946405;28;20386;-82
2022/07/25 03:24:18;;;;;;;0.90;0.40;;;21.90;94.40;;;;;;4942750;29;20035;-81
2022/07/25 03:26:46;;;;;;;3.05;0.50;;;21.90;94.50;;;;;;4942475;29;20081;-80
2022/07/25 03:29:13;;;;;;;1.75;0.60;;;21.80;94.80;;;;;;4932269;29;20046;-82
2022/07/25 03:31:41;;;;;;;0.50;0.20;;;21.60;95.00;;;;;;4945160;29;20047;-83
2022/07/25 03:34:08;;;;;;;1.00;0.40;;;21.40;95.00;;;;;;4948909;29;20139;-79
2022/07/25 03:36:35;;;;;;;2.13;0.60;;;21.40;94.90;;;;;;4949306;29;20210;-79
2022/07/25 03:39:03;;;;;;;0.70;0.40;;;21.10;95.50;;;;;;4951480;28;20027;-80
2022/07/25 03:41:30;;;;;;;0.57;0.50;;;20.80;96.10;;;;;;4949073;29;20118;-77
2022/07/25 03:43:58;;;;;;;0.30;0.30;;;20.50;96.10;;;;;;4945128;28;20106;-81
2022/07/25 03:46:25;;;;;;;1.08;0.40;;;20.20;97.10;;;;;;4947431;29;20039;-78
2022/07/25 03:48:54;;;;;;;0.95;0.40;;;20.00;97.50;;;;;;4948060;28;20497;-80
2022/07/25 03:51:21;;;;;;;0.17;0.17;;;19.70;97.00;;;;;;4945051;29;20123;-81
2022/07/25 03:54:00;;;;;;;1.25;0.20;;;19.40;97.60;;;;;;4951388;28;20038;-79
2022/07/25 03:56:36;;;;;;;0.88;0.20;;;19.20;97.80;;;;;;4946545;28;20024;-77
2022/07/25 03:59:08;;;;;;;0.60;0.38;;;19.00;98.30;;;;;;4949795;29;20034;-82
2022/07/25 04:01:35;;;;;;;1.30;0.25;;;19.00;98.90;;;;;;4944883;28;20027;-78
2022/07/25 04:04:03;;;;;;;0.38;0.15;;;19.00;98.40;;;;;;4949921;28;20043;-81
2022/07/25 04:06:31;;;;;;;1.20;0.20;;;18.90;97.90;;;;;;4946951;29;20039;-79
2022/07/25 04:08:59;;;;;;;0.20;0.10;;;19.00;98.20;;;;;;4947918;28;20027;-81
2022/07/25 04:11:28;;;;;;;0.10;0.10;;;19.00;98.70;;;;;;4946146;29;20033;-80
2022/07/25 04:13:55;;;;;;;0.10;0.10;;;19.00;98.90;;;;;;4941414;28;20054;-82
2022/07/25 04:16:23;;;;;;;1.85;0.20;;;19.00;97.90;;;;;;4945682;28;20028;-76
2022/07/25 04:18:51;;;;;;;0.25;0.10;;;18.90;97.70;;;;;;4937838;29;20828;-79
2022/07/25 04:21:19;;;;;;;0.28;0.10;;;18.80;97.60;;;;;;4942210;28;20035;-78
2022/07/25 04:23:47;;;;;;;0.35;0.20;;;18.80;97.90;;;;;;4939131;28;20469;-78
2022/07/25 04:26:15;;;;;;;0.38;0.17;;;18.80;97.40;;;;;;4938847;28;20059;-80
2022/07/25 04:28:42;;;;;;;0.68;0.10;;;18.80;97.50;;;;;;4937963;28;20382;-79
2022/07/25 04:31:10;;;;;;;0.70;0.10;;;18.70;97.40;;;;;;4938234;28;20165;-78
2022/07/25 04:33:39;;;;;;;0.10;0.00;;;18.70;97.10;;;;;;4944114;28;20051;-77
2022/07/25 04:36:06;;;;;;;0.38;0.30;;;18.70;96.90;;;;;;4944934;28;20025;-79
2022/07/25 04:38:34;;;;;;;0.95;0.08;;;18.70;96.80;;;;;;4941059;28;20043;-76
2022/07/25 04:41:02;;;;;;;1.20;0.13;;;18.60;97.10;;;;;;4935692;28;20032;-77
2022/07/25 04:43:29;;;;;;;0.95;0.32;;;18.50;97.30;;;;;;4944916;29;20517;-77
2022/07/25 04:45:57;;;;;;;0.20;0.08;;;18.50;97.20;;;;;;4942114;28;20179;-80
2022/07/25 04:48:24;;;;;;;3.10;0.17;;;18.50;97.90;;;;;;4943745;29;20047;-78
2022/07/25 04:50:52;;;;;;;0.25;0.17;;;18.50;98.40;;;;;;4941464;28;20061;-80
2022/07/25 04:53:19;;;;;;;0.32;0.10;;;18.50;98.30;;;;;;4942961;28;20057;-80
2022/07/25 04:55:47;;;;;;;0.20;0.10;;;18.50;97.50;;;;;;4943032;28;20038;-77
2022/07/25 04:58:14;;;;;;;0.40;0.10;;;18.40;97.70;;;;;;4948791;28;20034;-79
2022/07/25 05:00:42;;;;;;;1.90;0.17;;;18.30;98.00;;;;;;4936070;28;20031;-75
2022/07/25 05:03:09;;;;;;;1.05;0.10;;;18.40;98.20;;;;;;4940487;29;20047;-78
2022/07/25 05:05:37;;;;;;;0.73;0.17;;;18.40;98.40;;;;;;4943267;29;20035;-77
2022/07/25 05:08:04;;;;;;;1.65;0.25;;;18.50;97.90;;;;;;4932834;29;20082;-77
2022/07/25 05:10:32;;;;;;;0.52;0.10;;;18.60;97.80;;;;;;4940615;29;20039;-78
2022/07/25 05:12:59;;;;;;;0.55;0.52;;;18.60;97.30;;;;;;4939951;29;20110;-79
2022/07/25 05:15:26;;;;;;;2.40;0.30;;;18.60;97.30;;;;;;4942516;29;20046;-79
2022/07/25 05:17:54;;;;;;;0.10;0.10;;;18.60;97.50;;;;;;4941485;29;20039;-78
2022/07/25 05:20:21;;;;;;;1.95;0.10;;;18.60;97.70;;;;;;4941900;28;20042;-78
2022/07/25 05:22:49;;;;;;;1.70;0.25;;;18.70;97.50;;;;;;4940798;28;20383;-78
2022/07/25 05:25:16;;;;;;;0.55;0.10;;;18.70;97.50;;;;;;4942278;29;20427;-77
2022/07/25 05:27:44;;;;;;;0.40;0.20;;;18.80;97.40;;;;;;4940420;29;20684;-76
2022/07/25 05:30:13;;;;;;;0.50;0.30;;;18.70;97.30;;;;;;4941212;29;20403;-77
2022/07/25 05:32:41;;;;;;;1.55;0.20;;;18.60;97.80;;;;;;4943245;28;20102;-75
2022/07/25 05:35:09;;;;;;;2.00;0.10;;;18.60;98.00;;;;;;4940175;29;20446;-78
2022/07/25 05:37:37;;;;;;;0.10;0.10;;;18.70;98.00;;;;;;4935312;28;20089;-79
2022/07/25 05:40:06;;;;;;;0.30;0.10;;;18.70;97.90;;;;;;4939764;28;20031;-83
2022/07/25 05:42:34;;;;;;;0.30;0.30;;;18.80;97.70;;;;;;4938516;28;20031;-74
2022/07/25 05:45:02;;;;;;;0.98;0.10;;;18.90;98.30;;;;;;4938177;29;20039;-75
2022/07/25 05:47:29;;;;;;;2.92;0.30;;;18.90;98.00;;;;;;4939684;28;20027;-75
2022/07/25 05:49:57;;;;;;;0.17;0.10;;;18.90;97.90;;;;;;4942544;29;20031;-76
2022/07/25 05:52:24;;;;;;;1.13;0.10;;;18.90;98.30;;;;;;4938833;29;22022;-76
2022/07/25 05:54:52;;;;;;;1.08;0.30;;;18.80;98.10;;;;;;4941337;29;21599;-75
2022/07/25 05:57:19;;;;;;;0.90;0.30;;;18.90;98.20;;;;;;4938966;29;20027;-77
2022/07/25 05:59:46;;;;;;;1.17;0.17;;;18.90;97.90;;;;;;4935401;29;20465;-73
2022/07/25 06:02:14;;;;;;;1.75;0.20;;;18.80;97.80;;;;;;4936315;29;20055;-77
2022/07/25 06:04:41;;;;;;;3.30;0.40;;;18.80;97.90;;;;;;4935869;29;20039;-75
2022/07/25 06:07:09;;;;;;;2.33;0.43;;;18.70;98.00;;;;;;4937166;29;20377;-78
2022/07/25 06:09:37;;;;;;;0.95;0.20;;;18.70;98.10;;;;;;4937777;29;20166;-76
2022/07/25 06:12:05;;;;;;;0.20;0.10;;;18.60;98.90;;;;;;4938501;29;20042;-77
2022/07/25 06:14:32;;;;;;;1.58;0.20;;;18.30;99.00;;;;;;4939647;29;20031;-77
2022/07/25 06:17:00;;;;;;;0.30;0.20;;;18.10;99.20;;;;;;4937960;28;20063;-78
2022/07/25 06:19:27;;;;;;;0.73;0.40;;;17.90;99.60;;;;;;4940847;28;20035;-78
2022/07/25 06:21:54;;;;;;;0.73;0.20;;;17.80;99.90;;;;;;4937908;29;20039;-76
2022/07/25 06:24:22;;;;;;;0.30;0.17;;;17.70;99.60;;;;;;4941384;29;20097;-78
2022/07/25 06:26:49;;;;;;;1.42;0.30;;;17.80;99.90;;;;;;4935686;28;20035;-77
2022/07/25 06:29:17;;;;;;;0.73;0.30;;;17.90;99.80;;;;;;4937729;28;20023;-78
2022/07/25 06:31:44;;;;;;;0.30;0.10;;;18.00;99.60;;;;;;4936638;28;20031;-76
2022/07/25 06:34:11;;;;;;;1.48;0.20;;;18.00;99.90;;;;;;4937285;28;20074;-77
2022/07/25 06:36:42;;;;;;;1.02;0.43;;;18.10;99.90;;;;;;4936816;28;20082;-80
2022/07/25 06:39:10;;;;;;;9.55;0.68;;;18.10;99.60;;;;;;4921511;29;20406;-78
2022/07/25 06:41:37;;;;;;;3.90;0.38;;;18.10;99.70;;;;;;4918215;29;20031;-78
2022/07/25 06:44:05;;;;;;;7.18;0.50;;;18.10;99.80;;;;;;4937371;29;20043;-77
2022/07/25 06:46:32;;;;;;;7.25;1.05;;;18.10;99.80;;;;;;4935796;28;20032;-79
2022/07/25 06:49:00;;;;;;;2.30;0.50;;;18.00;99.90;;;;;;4934441;29;20123;-78
2022/07/25 06:51:27;;;;;;;3.70;0.70;;;17.80;99.90;;;;;;4936206;28;20039;-80
2022/07/25 06:53:55;;;;;;;6.28;1.92;;;17.70;99.90;;;;;;4938668;29;20039;-78
2022/07/25 06:56:23;;;;;;;3.42;0.63;;;17.60;99.90;;;;;;4932576;28;20027;-78
2022/07/25 06:58:52;;;;;;;5.45;2.17;;;17.50;99.90;;;;;;4935782;28;20091;-77
2022/07/25 07:01:19;;;;;;;1.58;0.40;;;17.40;99.90;;;;;;4936031;28;20035;-78
2022/07/25 07:03:47;;;;;;;2.58;0.73;;;17.30;99.90;;;;;;4937467;28;20054;-77
2022/07/25 07:06:14;;;;;;;2.38;0.30;;;17.10;99.90;;;;;;4938168;28;20041;-77
2022/07/25 07:08:42;;;;;;;0.40;0.20;;;17.10;99.90;;;;;;4939869;29;20043;-75
2022/07/25 07:11:09;;;;;;;2.65;0.35;;;16.90;99.90;;;;;;4936557;28;20138;-76
2022/07/25 07:13:37;;;;;;;2.95;0.47;;;16.80;99.90;;;;;;4938722;29;20062;-74
2022/07/25 07:16:04;;;;;;;4.00;0.63;;;16.60;99.90;;;;;;4942350;29;20039;-75
2022/07/25 07:18:32;;;;;;;3.58;0.70;;;16.50;99.90;;;;;;4940556;28;20106;-75
2022/07/25 07:20:59;;;;;;;1.35;0.40;;;16.30;99.90;;;;;;4938574;28;20411;-72
2022/07/25 07:23:26;;;;;;;5.15;0.95;;;16.20;99.90;;;;;;4934907;28;20398;-77
2022/07/25 07:25:54;;;;;;;4.60;2.15;;;16.10;99.90;;;;;;4937808;28;21571;-76
2022/07/25 07:28:21;;;;;;;2.90;1.13;;;16.00;99.90;;;;;;4938433;29;20046;-74
2022/07/25 07:30:49;;;;;;;4.35;1.27;;;15.90;99.90;;;;;;4937403;28;20062;-75
2022/07/25 07:33:16;;;;;;;6.78;1.40;;;15.90;99.90;;;;;;4938954;29;20078;-76
2022/07/25 07:35:44;;;;;;;1.75;1.10;;;15.80;99.90;;;;;;4941600;28;20039;-75
2022/07/25 07:38:12;;;;;;;3.58;1.55;;;15.70;99.90;;;;;;4941215;29;20031;-78
2022/07/25 07:40:42;;;;;;;3.15;1.42;;;15.60;99.90;;;;;;4939598;29;20146;-76
2022/07/25 07:43:09;;;;;;;2.30;1.00;;;15.50;99.90;;;;;;4940938;29;20035;-75
2022/07/25 07:45:37;;;;;;;3.88;1.58;;;15.40;99.90;;;;;;4942771;28;20044;-75
2022/07/25 07:48:06;;;;;;;4.68;1.40;;;15.40;99.90;;;;;;4939323;29;20028;-75
2022/07/25 07:50:35;;;;;;;2.25;1.20;;;15.30;99.90;;;;;;4937885;29;20035;-74
2022/07/25 07:53:03;;;;;;;3.10;1.58;;;15.20;99.90;;;;;;4937128;29;20047;-75
2022/07/25 07:55:43;;;;;;;3.55;1.73;;;15.20;99.90;;;;;;4941043;29;20027;-75
2022/07/25 07:58:15;;;;;;;3.28;1.60;;;15.00;99.90;;;;;;4937457;29;20047;-74
2022/07/25 08:00:45;;;;;;;5.35;2.33;;;14.90;99.90;;;;;;4941592;29;20147;-74
2022/07/25 08:03:12;;;;;;;3.15;1.85;;;14.80;99.90;;;;;;4938850;28;20086;-76
2022/07/25 08:05:44;;;;;;;4.30;2.33;;;14.70;99.90;;;;;;4942895;29;20035;-75
2022/07/25 08:08:14;;;;;;;4.03;2.47;;;14.70;99.90;;;;;;4940336;29;20035;-77
2022/07/25 08:10:44;;;;;;;3.53;1.85;;;14.60;99.90;;;;;;4943457;29;20389;-75
2022/07/25 08:13:21;;;;;;;6.35;3.20;;;14.50;99.90;;;;;;4939782;28;20039;-76
2022/07/25 08:15:52;;;;;;;5.82;2.63;;;14.50;99.90;;;;;;4945244;29;20062;-76
2022/07/25 08:18:20;;;;;;;5.10;2.55;;;14.40;99.90;;;;;;4939153;29;20042;-76
2022/07/25 08:20:48;;;;;;;6.07;3.10;;;14.40;99.90;;;;;;4944327;29;20040;-74
2022/07/25 08:23:16;;;;;;;8.90;4.55;;;14.30;99.90;;;;;;4944350;29;20046;-75
2022/07/25 08:25:45;;;;;;;6.55;4.53;;;14.20;99.90;;;;;;4943592;29;20419;-77
2022/07/25 08:28:13;;;;;;;7.70;4.97;;;14.20;99.90;;;;;;4942212;29;20031;-78
2022/07/25 08:30:41;;;;;;;8.00;5.40;;;14.20;99.90;;;;;;4943670;29;20070;-76
2022/07/25 08:33:17;;;;;;;5.63;3.47;;;14.10;99.90;;;;;;4926413;29;20035;-76
2022/07/25 08:35:53;;;;;;;4.15;3.00;;;14.20;99.90;;;;;;4950211;29;20043;-76
2022/07/25 08:38:22;;;;;;;9.35;2.80;;;14.20;99.90;;;;;;4944232;29;20035;-76
2022/07/25 08:40:50;;;;;;;5.63;2.63;;;14.20;99.90;;;;;;4943081;28;20038;-76
2022/07/25 08:43:18;;;;;;;5.30;2.35;;;14.20;99.90;;;;;;4943145;29;20110;-77
2022/07/25 08:45:52;;;;;;;3.75;2.30;;;14.30;99.90;;;;;;4942255;29;20097;-78
2022/07/25 08:48:24;;;;;;;8.10;2.42;;;14.30;99.90;;;;;;4942580;29;20027;-79
2022/07/25 08:50:53;;;;;;;6.60;2.53;;;14.30;99.90;;;;;;4942253;29;20103;-76
2022/07/25 08:53:21;;;;;;;7.55;1.95;;;14.30;99.90;;;;;;4944280;29;20070;-76
2022/07/25 08:55:49;;;;;;;3.95;2.55;;;14.30;99.90;;;;;;4942220;28;20090;-75
2022/07/25 08:58:17;;;;;;;5.00;2.25;;;14.30;99.90;;;;;;4941075;29;20047;-75
2022/07/25 09:00:45;;;;;;;6.97;2.70;;;14.30;99.90;;;;;;4946195;29;20031;-75
2022/07/25 09:03:13;;;;;;;3.13;1.75;;;14.30;99.90;;;;;;4950150;29;20042;-75
2022/07/25 09:05:40;;;;;;;5.13;2.10;;;14.30;99.90;;;;;;4948326;29;20058;-76
2022/07/25 09:08:11;;;;;;;7.35;1.98;;;14.30;99.90;;;;;;4940484;29;20023;-76
2022/07/25 09:10:41;;;;;;;4.60;1.52;;;14.30;99.90;;;;;;4943460;29;20371;-76
2022/07/25 09:13:14;;;;;;;6.22;2.28;;;14.40;99.90;;;;;;4943540;29;20035;-75
2022/07/25 09:15:50;;;;;;;7.88;1.75;;;14.30;99.90;;;;;;4941685;28;20106;-76
2022/07/25 09:18:24;;;;;;;3.10;1.70;;;14.30;99.90;;;;;;4941853;29;20382;-76
2022/07/25 09:20:52;;;;;;;6.32;2.20;;;14.30;99.90;;;;;;4942062;29;20051;-77
2022/07/25 09:23:34;;;;;;;3.13;1.30;;;14.30;99.90;;;;;;4945865;28;20066;-76
2022/07/25 09:26:04;;;;;;;4.07;1.60;;;14.20;99.90;;;;;;4940720;28;20371;-77
2022/07/25 09:28:32;;;;;;;3.80;1.80;;;14.20;99.90;;;;;;4939187;28;20423;-77
2022/07/25 09:31:00;;;;;;;1.88;1.40;;;14.20;99.90;;;;;;4938495;29;20037;-75
2022/07/25 09:33:29;;;;;;;8.90;4.00;;;14.00;99.90;;;;;;4938417;29;20058;-76
2022/07/25 09:35:57;;;;;;;13.15;5.90;;;14.00;99.90;;;;;;4946911;28;20031;-77
2022/07/25 09:38:25;;;;;;;19.02;8.80;;;13.90;99.90;;;;;;4946609;29;20473;-76
2022/07/25 09:41:00;;;;;;;27.85;12.10;;;13.90;99.90;;;;;;4939455;29;20089;-77
2022/07/25 09:43:44;;;;;;;36.60;16.45;;;13.80;99.90;;;;;;4940967;29;20052;-78
2022/07/25 09:46:12;;;;;;;47.70;21.98;;;13.70;99.90;;;;;;4940747;29;20371;-75
2022/07/25 09:48:44;;;;;;;50.70;24.08;;;13.60;99.90;;;;;;4941739;29;20027;-76
2022/07/25 09:51:12;;;;;;;51.65;22.83;;;13.50;99.90;;;;;;4946893;29;20042;-76
2022/07/25 09:53:41;;;;;;;48.65;24.15;;;13.50;99.90;;;;;;4949741;29;20039;-78
2022/07/25 09:56:08;;;;;;;34.42;20.05;;;13.50;99.90;;;;;;4949253;29;20030;-76
2022/07/25 09:58:36;;;;;;;38.20;17.90;;;13.40;99.90;;;;;;4923558;29;20051;-78
2022/07/25 10:01:07;;;;;;;29.05;14.05;;;13.30;99.90;;;;;;4945754;29;20027;-76
2022/07/25 10:03:48;;;;;;;20.85;12.15;;;13.30;99.90;;;;;;4942525;29;20057;-77
2022/07/25 10:06:38;;;;;;;17.02;8.70;;;13.20;99.90;;;;;;4943574;29;20500;-77
2022/07/25 10:09:15;;;;;;;14.40;7.72;;;13.20;99.90;;;;;;4942147;29;20035;-76
2022/07/25 10:12:03;;;;;;;16.90;9.02;;;13.10;99.90;;;;;;4940249;29;20436;-77
2022/07/25 10:14:32;;;;;;;17.42;8.68;;;13.00;99.90;;;;;;4941854;29;20038;-77
2022/07/25 10:17:03;;;;;;;17.88;9.95;;;13.00;99.90;;;;;;4939682;28;20035;-77
2022/07/25 10:19:47;;;;;;;19.48;9.50;;;12.90;99.90;;;;;;4943291;28;20043;-76
2022/07/25 10:22:15;;;;;;;23.00;10.55;;;12.80;99.90;;;;;;4948697;29;20513;-77
2022/07/25 10:24:47;;;;;;;17.35;8.25;;;12.70;99.90;;;;;;4941474;29;21037;-75
2022/07/25 10:27:22;;;;;;;19.85;10.55;;;12.60;99.90;;;;;;4940110;28;20072;-75
2022/07/25 10:29:53;;;;;;;18.33;8.35;;;12.50;99.90;;;;;;4941243;29;20493;-76
2022/07/25 10:32:34;;;;;;;17.58;8.60;;;12.40;99.90;;;;;;4925033;29;20039;-76
2022/07/25 10:35:11;;;;;;;13.80;8.50;;;12.30;99.90;;;;;;4939873;29;20051;-75
2022/07/25 10:37:39;;;;;;;16.30;7.43;;;12.30;99.90;;;;;;4939613;29;20422;-76
2022/07/25 10:40:07;;;;;;;11.27;6.32;;;12.20;99.90;;;;;;4940945;29;20032;-76
2022/07/25 10:42:34;;;;;;;16.88;7.18;;;12.20;99.90;;;;;;4939549;29;20065;-76
2022/07/25 10:45:04;;;;;;;14.00;5.88;;;12.10;99.90;;;;;;4941115;29;20047;-76
2022/07/25 10:47:41;;;;;;;10.27;5.20;;;12.10;99.90;;;;;;4939579;28;20118;-77
2022/07/25 10:50:11;;;;;;;8.80;4.68;;;12.00;99.90;;;;;;4941745;29;20031;-77
2022/07/25 10:52:43;;;;;;;11.65;4.63;;;12.00;99.90;;;;;;4924466;29;20023;-77
2022/07/25 10:55:21;;;;;;;9.40;5.43;;;12.00;99.90;;;;;;4938771;28;20040;-76
2022/07/25 10:58:00;;;;;;;13.57;5.68;;;11.90;99.90;;;;;;4938187;29;20034;-77
2022/07/25 11:00:29;;;;;;;11.68;5.30;;;11.90;99.90;;;;;;4944087;28;20023;-76
2022/07/25 11:02:57;;;;;;;9.73;4.53;;;11.90;99.90;;;;;;4937362;28;20808;-76
2022/07/25 11:05:24;;;;;;;6.30;3.58;;;11.90;99.90;;;;;;4941223;29;20047;-76
2022/07/25 11:07:53;;;;;;;9.23;4.20;;;11.90;99.90;;;;;;4940384;29;20031;-77
2022/07/25 11:10:27;;;;;;;8.40;4.35;;;11.90;99.90;;;;;;4940388;28;20443;-77
2022/07/25 11:12:56;;;;;;;8.18;4.10;;;11.90;99.90;;;;;;4939999;29;20035;-77
2022/07/25 11:15:24;;;;;;;6.97;3.33;;;11.80;99.90;;;;;;4946872;29;20027;-76
2022/07/25 11:17:52;;;;;;;8.88;3.60;;;11.80;99.90;;;;;;4941641;28;20222;-76
2022/07/25 11:20:20;;;;;;;5.35;3.58;;;11.80;99.90;;;;;;4941922;28;20059;-76
2022/07/25 11:22:55;;;;;;;9.40;3.88;;;11.70;99.90;;;;;;4938731;29;20427;-76
2022/07/25 11:25:23;;;;;;;6.57;3.80;;;11.70;99.90;;;;;;4941442;29;20043;-77
2022/07/25 11:27:59;;;;;;;7.40;4.40;;;11.80;99.90;;;;;;4941223;29;20019;-77
2022/07/25 11:30:31;;;;;;;9.60;5.57;;;11.80;99.90;;;;;;4942202;29;20038;-77
2022/07/25 11:33:02;;;;;;;11.23;7.13;;;11.80;99.90;;;;;;4941763;29;20035;-77
2022/07/25 11:35:32;;;;;;;12.90;8.93;;;11.90;99.90;;;;;;4937298;28;20067;-76
2022/07/25 11:38:03;;;;;;;17.70;11.32;;;11.90;99.90;;;;;;4935903;28;20126;-76
2022/07/25 11:40:31;;;;;;;16.20;9.73;;;11.80;99.90;;;;;;4943792;28;20455;-78
2022/07/25 11:42:59;;;;;;;15.20;9.25;;;11.80;99.90;;;;;;4946009;29;20106;-77
2022/07/25 11:45:32;;;;;;;12.63;8.32;;;11.70;99.90;;;;;;4947964;29;20079;-77
2022/07/25 11:48:14;;;;;;;13.82;8.85;;;11.70;99.90;;;;;;4947543;29;20031;-75
2022/07/25 11:50:44;;;;;;;21.80;10.63;;;11.70;99.90;;;;;;4950372;29;20046;-75
2022/07/25 11:53:14;;;;;;;18.45;12.02;;;11.60;99.90;;;;;;4943215;29;20031;-77
2022/07/25 11:55:42;;;;;;;14.07;11.18;;;11.60;99.90;;;;;;4944845;28;20031;-75
2022/07/25 11:58:11;;;;;;;17.40;11.48;;;11.60;99.90;;;;;;4942192;29;20035;-77
2022/07/25 12:00:46;;;;;;;17.20;12.02;;;11.60;99.90;;;;;;4944459;29;20031;-76
2022/07/25 12:03:21;;;;;;;20.23;13.23;;;11.50;99.90;;;;;;4942579;28;20086;-77
2022/07/25 12:05:49;;;;;;;14.43;11.13;;;11.50;99.90;;;;;;4941637;29;20504;-76
2022/07/25 12:08:18;;;;;;;14.20;10.25;;;11.40;99.90;;;;;;4943352;29;20185;-75
2022/07/25 12:10:46;;;;;;;14.98;10.63;;;11.40;99.90;;;;;;4945284;28;20035;-76
2022/07/25 12:13:25;;;;;;;14.15;9.50;;;11.40;99.90;;;;;;4944423;28;20043;-76
2022/07/25 12:15:53;;;;;;;15.65;10.05;;;11.30;99.90;;;;;;4944117;28;20401;-77
2022/07/25 12:18:20;;;;;;;14.35;8.93;;;11.30;99.90;;;;;;4944267;28;20031;-76
2022/07/25 12:20:48;;;;;;;13.32;7.47;;;11.20;99.90;;;;;;4942491;29;20423;-75
2022/07/25 12:23:15;;;;;;;10.00;7.47;;;11.20;99.90;;;;;;4943757;29;20035;-77
2022/07/25 12:25:46;;;;;;;9.35;5.35;;;11.20;99.90;;;;;;4940323;29;20024;-76
2022/07/25 12:28:14;;;;;;;9.07;5.70;;;11.20;99.90;;;;;;4944284;29;20129;-77
2022/07/25 12:30:43;;;;;;;12.32;6.95;;;11.20;99.90;;;;;;4944462;29;20031;-76
2022/07/25 12:33:11;;;;;;;12.60;7.90;;;11.10;99.90;;;;;;4942915;29;20569;-75
2022/07/25 12:35:41;;;;;;;10.63;6.95;;;11.10;99.90;;;;;;4943427;29;20489;-75
2022/07/25 12:38:09;;;;;;;13.98;7.30;;;11.10;99.90;;;;;;4947764;29;20027;-76
2022/07/25 12:40:38;;;;;;;9.27;6.68;;;11.10;99.90;;;;;;4944774;29;20046;-76
2022/07/25 12:43:05;;;;;;;14.10;8.05;;;11.00;99.90;;;;;;4943598;29;20027;-77
2022/07/25 12:45:33;;;;;;;9.13;6.47;;;11.00;99.90;;;;;;4942218;29;20089;-76
2022/07/25 12:48:00;;;;;;;13.65;7.78;;;11.00;99.90;;;;;;4921038;29;20049;-76
2022/07/25 12:50:28;;;;;;;10.10;5.82;;;11.00;99.90;;;;;;4941005;28;20046;-76
2022/07/25 12:52:55;;;;;;;8.85;6.38;;;11.00;99.90;;;;;;4942360;28;20134;-77